createdAt,value
2022-09-04T00:02:08.338Z,25.60
2022-09-04T00:04:53.727Z,25.60
2022-09-04T00:07:31.440Z,25.70
2022-09-04T00:10:12.529Z,25.70
2022-09-04T00:12:58.613Z,25.80
2022-09-04T00:15:42.512Z,25.90
2022-09-04T00:18:31.684Z,26.00
2022-09-04T00:21:23.149Z,26.00
2022-09-04T00:24:09.054Z,26.10
2022-09-04T00:27:04.442Z,26.20
2022-09-04T00:30:04.334Z,26.30
2022-09-04T00:32:40.720Z,26.40
2022-09-04T00:35:25.599Z,26.50
2022-09-04T00:38:33.782Z,26.50
2022-09-04T00:41:13.624Z,26.60
2022-09-04T00:44:19.322Z,26.70
2022-09-04T00:47:04.710Z,26.80
2022-09-04T00:50:00.652Z,26.80
2022-09-04T00:52:36.635Z,26.80
2022-09-04T00:55:25.378Z,26.90
2022-09-04T00:58:17.962Z,26.90
2022-09-04T01:00:49.341Z,26.90
2022-09-04T01:03:41.482Z,26.90
2022-09-04T01:06:47.239Z,26.90
2022-09-04T01:09:26.076Z,26.90
2022-09-04T01:12:18.774Z,27.00
2022-09-04T01:15:01.640Z,27.00
2022-09-04T01:18:07.704Z,27.00
2022-09-04T01:20:49.061Z,27.00
2022-09-04T01:24:02.256Z,27.10
2022-09-04T01:27:10.372Z,27.20
2022-09-04T01:30:09.258Z,27.30
2022-09-04T01:32:38.787Z,27.40
2022-09-04T01:35:38.499Z,27.50
2022-09-04T01:41:01.322Z,27.90
2022-09-04T01:43:32.130Z,28.10
2022-09-04T01:46:11.512Z,28.20
2022-09-04T01:48:46.541Z,28.20
2022-09-04T01:51:28.863Z,28.20
2022-09-04T01:54:28.682Z,28.20
2022-09-04T01:57:21.329Z,28.20
2022-09-04T02:00:11.522Z,28.20
2022-09-04T02:02:56.619Z,28.30
2022-09-04T02:05:32.110Z,28.30
2022-09-04T02:08:30.394Z,28.40
2022-09-04T02:11:10.807Z,28.50
2022-09-04T02:14:05.459Z,28.60
2022-09-04T02:17:10.396Z,28.70
2022-09-04T02:20:00.909Z,28.90
2022-09-04T02:22:33.123Z,29.00
2022-09-04T02:25:20.360Z,29.10
2022-09-04T02:28:15.383Z,29.20
2022-09-04T02:31:11.854Z,29.20
2022-09-04T02:34:04.381Z,29.30
2022-09-04T02:36:39.965Z,29.40
2022-09-04T02:39:21.171Z,29.50
2022-09-04T02:42:22.780Z,29.60
2022-09-04T02:45:18.544Z,29.90
2022-09-04T02:48:29.434Z,30.00
2022-09-04T02:51:39.950Z,30.30
2022-09-04T02:54:21.849Z,30.50
2022-09-04T02:57:30.625Z,30.60
2022-09-04T03:00:09.654Z,30.70
2022-09-04T03:03:12.844Z,30.80
2022-09-04T03:06:05.106Z,31.10
2022-09-04T03:08:53.440Z,31.30
2022-09-04T03:11:54.724Z,31.50
2022-09-04T03:14:50.463Z,31.70
2022-09-04T03:17:47.624Z,31.80
2022-09-04T03:20:21.126Z,31.80
2022-09-04T03:22:50.410Z,31.70
2022-09-04T03:25:34.060Z,31.70
2022-09-04T03:28:04.078Z,31.60
2022-09-04T03:30:38.354Z,31.60
2022-09-04T03:33:16.554Z,31.60
2022-09-04T03:35:56.663Z,31.60
2022-09-04T03:38:34.195Z,31.80
2022-09-04T03:41:36.310Z,31.90
2022-09-04T03:44:33.755Z,32.20
2022-09-04T03:47:21.346Z,32.40
2022-09-04T03:50:37.499Z,32.50
2022-09-04T03:54:04.256Z,32.60
2022-09-04T03:56:53.869Z,32.60
2022-09-04T03:59:46.634Z,32.70
2022-09-04T04:02:47.498Z,32.90
2022-09-04T04:05:16.550Z,33.00
2022-09-04T04:08:00.177Z,33.00
2022-09-04T04:10:36.484Z,33.10
2022-09-04T04:13:43.987Z,33.10
2022-09-04T04:16:28.498Z,33.20
2022-09-04T04:19:22.315Z,33.30
2022-09-04T04:22:12.859Z,33.40
2022-09-04T04:25:16.181Z,33.40
2022-09-04T04:28:21.033Z,33.40
2022-09-04T04:30:55.688Z,33.60
2022-09-04T04:33:49.028Z,33.70
2022-09-04T04:36:48.974Z,33.70
2022-09-04T04:39:46.591Z,33.60
2022-09-04T04:42:43.035Z,33.50
2022-09-04T04:45:52.760Z,33.40
2022-09-04T04:48:28.097Z,33.30
2022-09-04T04:51:09.595Z,33.20
2022-09-04T04:53:55.424Z,33.30
2022-09-04T04:56:56.966Z,33.40
2022-09-04T04:59:36.254Z,33.40
2022-09-04T05:02:27.046Z,33.40
2022-09-04T05:05:14.790Z,33.30
2022-09-04T05:08:08.387Z,33.30
2022-09-04T05:11:17.089Z,33.40
2022-09-04T05:14:07.566Z,33.40
2022-09-04T05:16:58.227Z,33.50
2022-09-04T05:19:32.434Z,33.40
2022-09-04T05:22:16.789Z,33.30
2022-09-04T05:25:22.562Z,33.20
2022-09-04T05:28:48.595Z,33.00
2022-09-04T05:31:43.184Z,32.90
2022-09-04T05:34:41.567Z,32.90
2022-09-04T05:38:00.996Z,32.80
2022-09-04T05:41:07.366Z,32.70
2022-09-04T05:44:30.415Z,32.60
2022-09-04T05:47:08.065Z,32.50
2022-09-04T05:50:04.375Z,32.50
2022-09-04T05:53:02.129Z,32.40
2022-09-04T05:55:52.700Z,32.40
2022-09-04T05:58:55.712Z,32.30
2022-09-04T06:01:43.127Z,32.30
2022-09-04T06:04:27.400Z,32.20
2022-09-04T06:07:06.865Z,32.20
2022-09-04T06:09:52.343Z,32.10
2022-09-04T06:12:28.965Z,32.20
2022-09-04T06:15:16.241Z,32.10
2022-09-04T06:18:02.291Z,32.10
2022-09-04T06:21:03.312Z,32.10
2022-09-04T06:24:19.786Z,32.10
2022-09-04T06:27:25.535Z,31.90
2022-09-04T06:30:18.911Z,31.90
2022-09-04T06:33:03.276Z,31.80
2022-09-04T06:35:48.326Z,31.80
2022-09-04T06:38:29.354Z,31.80
2022-09-04T06:41:20.370Z,31.80
2022-09-04T06:44:13.907Z,31.80
2022-09-04T06:46:49.856Z,31.90
2022-09-04T06:49:28.291Z,31.90
2022-09-04T06:52:22.387Z,32.10
2022-09-04T06:55:00.533Z,32.30
2022-09-04T06:57:51.395Z,32.40
2022-09-04T07:00:21.255Z,32.70
2022-09-04T07:03:24.384Z,32.70
2022-09-04T07:06:31.907Z,32.90
2022-09-04T07:09:16.189Z,33.00
2022-09-04T07:12:34.757Z,33.00
2022-09-04T07:15:37.601Z,33.00
2022-09-04T07:18:27.058Z,33.00
2022-09-04T07:21:22.512Z,32.90
2022-09-04T07:24:03.659Z,32.80
2022-09-04T07:27:00.594Z,32.80
2022-09-04T07:30:02.292Z,32.80
2022-09-04T07:33:00.317Z,32.80
2022-09-04T07:35:55.388Z,32.90
2022-09-04T07:39:01.566Z,33.00
2022-09-04T07:41:40.319Z,33.00
2022-09-04T07:44:24.577Z,33.00
2022-09-04T07:47:15.349Z,32.90
2022-09-04T07:50:16.817Z,32.90
2022-09-04T07:53:14.784Z,33.00
2022-09-04T07:56:00.871Z,32.90
2022-09-04T07:59:00.779Z,33.00
2022-09-04T08:01:45.395Z,33.00
2022-09-04T08:04:23.647Z,33.20
2022-09-04T08:07:11.375Z,33.30
2022-09-04T08:10:15.007Z,33.30
2022-09-04T08:13:13.385Z,33.30
2022-09-04T08:16:13.414Z,33.40
2022-09-04T08:19:19.538Z,33.40
2022-09-04T08:21:51.530Z,33.50
2022-09-04T08:24:47.498Z,33.50
2022-09-04T08:27:44.405Z,33.60
2022-09-04T08:30:19.476Z,33.70
2022-09-04T08:33:28.634Z,33.70
2022-09-04T08:36:13.931Z,33.70
2022-09-04T08:39:04.677Z,33.70
2022-09-04T08:42:12.814Z,33.60
2022-09-04T08:45:18.548Z,33.60
2022-09-04T08:47:58.874Z,33.60
2022-09-04T08:50:40.634Z,33.60
2022-09-04T08:53:51.175Z,33.60
2022-09-04T08:56:36.225Z,33.60
2022-09-04T08:59:38.887Z,33.50
2022-09-04T09:02:52.456Z,33.50
2022-09-04T09:05:39.956Z,33.60
2022-09-04T09:08:27.442Z,33.60
2022-09-04T09:11:27.163Z,33.60
2022-09-04T09:14:14.725Z,33.50
2022-09-04T09:16:46.594Z,33.30
2022-09-04T09:19:49.338Z,33.20
2022-09-04T09:22:37.165Z,32.90
2022-09-04T09:25:21.634Z,32.50
2022-09-04T09:28:12.061Z,32.00
2022-09-04T09:31:08.403Z,31.60
2022-09-04T09:34:15.294Z,31.10
2022-09-04T09:37:22.755Z,30.60
2022-09-04T09:40:12.988Z,30.10
2022-09-04T09:42:57.048Z,29.90
2022-09-04T09:45:53.483Z,29.70
2022-09-04T09:48:48.922Z,29.60
2022-09-04T09:51:48.628Z,29.40
2022-09-04T09:55:01.522Z,29.20
2022-09-04T09:58:07.135Z,29.10
2022-09-04T10:01:08.487Z,29.00
2022-09-04T10:03:40.849Z,28.90
2022-09-04T10:06:31.384Z,28.80
2022-09-04T10:09:18.656Z,28.80
2022-09-04T10:12:09.332Z,28.80
2022-09-04T10:15:11.896Z,28.70
2022-09-04T10:18:08.522Z,28.70
2022-09-04T10:20:43.473Z,28.60
2022-09-04T10:23:27.747Z,28.70
2022-09-04T10:26:27.017Z,28.70
2022-09-04T10:29:17.196Z,28.70
2022-09-04T10:31:55.372Z,28.70
2022-09-04T10:34:47.510Z,28.70
2022-09-04T10:37:31.219Z,28.70
2022-09-04T10:40:42.183Z,28.70
2022-09-04T10:43:43.996Z,28.70
2022-09-04T10:46:23.238Z,28.70
2022-09-04T10:49:22.984Z,28.60
2022-09-04T10:52:29.924Z,28.60
2022-09-04T10:55:10.124Z,28.50
2022-09-04T10:58:12.534Z,28.50
2022-09-04T11:01:05.155Z,28.50
2022-09-04T11:03:58.796Z,28.50
2022-09-04T11:06:43.419Z,28.50
2022-09-04T11:09:50.466Z,28.40
2022-09-04T11:12:56.702Z,28.40
2022-09-04T11:16:05.674Z,28.40
2022-09-04T11:18:46.616Z,28.40
2022-09-04T11:21:36.980Z,28.30
2022-09-04T11:24:24.060Z,28.40
2022-09-04T11:27:37.541Z,28.30
2022-09-04T11:30:15.474Z,28.30
2022-09-04T11:33:03.613Z,28.30
2022-09-04T11:35:51.777Z,28.20
2022-09-04T11:38:44.767Z,28.20
2022-09-04T11:41:33.463Z,28.20
2022-09-04T11:44:26.371Z,28.20
2022-09-04T11:47:14.728Z,28.10
2022-09-04T11:50:08.170Z,28.10
2022-09-04T11:53:15.902Z,28.10
2022-09-04T11:56:06.623Z,28.00
2022-09-04T11:59:06.650Z,28.00
2022-09-04T12:02:03.241Z,28.00
2022-09-04T12:04:44.553Z,27.90
2022-09-04T12:07:17.292Z,27.90
2022-09-04T12:10:08.073Z,27.90
2022-09-04T12:13:15.049Z,27.80
2022-09-04T12:16:16.617Z,27.80
2022-09-04T12:19:13.961Z,27.80
2022-09-04T12:22:11.685Z,27.80
2022-09-04T12:24:40.996Z,27.70
2022-09-04T12:27:13.608Z,27.70
2022-09-04T12:30:02.176Z,27.60
2022-09-04T12:32:49.232Z,27.60
2022-09-04T12:35:46.699Z,27.60
2022-09-04T12:39:02.492Z,27.60
2022-09-04T12:42:03.406Z,27.60
2022-09-04T12:44:56.705Z,27.50
2022-09-04T12:47:38.415Z,27.50
2022-09-04T12:50:36.098Z,27.50
2022-09-04T12:53:27.032Z,27.50
2022-09-04T12:56:07.896Z,27.40
2022-09-04T12:58:49.878Z,27.40
2022-09-04T13:01:44.327Z,27.40
2022-09-04T13:04:27.761Z,27.40
2022-09-04T13:07:03.115Z,27.40
2022-09-04T13:09:42.805Z,27.40
2022-09-04T13:12:56.423Z,27.40
2022-09-04T13:15:35.786Z,27.40
2022-09-04T13:18:10.171Z,27.40
2022-09-04T13:20:50.622Z,27.40
2022-09-04T13:23:37.087Z,27.40
2022-09-04T13:26:25.485Z,27.40
2022-09-04T13:29:17.098Z,27.40
2022-09-04T13:31:56.159Z,27.40
2022-09-04T13:35:10.387Z,27.40
2022-09-04T13:37:58.398Z,27.40
2022-09-04T13:40:42.173Z,27.40
2022-09-04T13:43:42.574Z,27.40
2022-09-04T13:46:40.130Z,27.40
2022-09-04T13:49:20.037Z,27.30
2022-09-04T13:52:05.934Z,27.30
2022-09-04T13:54:37.781Z,27.30
2022-09-04T13:57:22.289Z,27.20
2022-09-04T13:59:53.135Z,27.20
2022-09-04T14:02:26.496Z,27.20
2022-09-04T14:05:24.295Z,27.20
2022-09-04T14:08:18.932Z,27.20
2022-09-04T14:11:14.029Z,27.10
2022-09-04T14:14:42.361Z,27.10
2022-09-04T14:17:13.654Z,27.10
2022-09-04T14:19:54.673Z,27.10
2022-09-04T14:22:27.477Z,27.10
2022-09-04T14:28:22.464Z,27.10
2022-09-04T14:30:29.374Z,27.10
2022-09-04T14:31:21.979Z,27.10
2022-09-04T14:34:38.643Z,27.10
2022-09-04T14:37:31.839Z,27.10
2022-09-04T14:40:07.198Z,27.10
2022-09-04T14:42:47.121Z,27.10
2022-09-04T14:45:37.497Z,27.10
2022-09-04T14:48:12.553Z,27.10
2022-09-04T14:51:01.164Z,27.10
2022-09-04T14:53:35.539Z,27.10
2022-09-04T14:56:14.114Z,27.10
2022-09-04T14:58:53.438Z,27.10
2022-09-04T15:01:25.422Z,27.10
2022-09-04T15:04:01.189Z,27.10
2022-09-04T15:07:07.901Z,27.10
2022-09-04T15:09:50.349Z,27.10
2022-09-04T15:12:28.664Z,27.10
2022-09-04T15:15:06.617Z,27.10
2022-09-04T15:17:40.060Z,27.10
2022-09-04T15:20:17.102Z,27.10
2022-09-04T15:22:58.380Z,27.10
2022-09-04T15:26:01.958Z,27.10
2022-09-04T15:28:35.680Z,27.10
2022-09-04T15:31:18.901Z,27.10
2022-09-04T15:33:50.305Z,27.10
2022-09-04T15:36:25.220Z,27.00
2022-09-04T15:38:58.972Z,27.00
2022-09-04T15:41:46.103Z,27.00
2022-09-04T15:44:33.247Z,27.10
2022-09-04T15:47:20.670Z,27.10
2022-09-04T15:50:01.740Z,27.00
2022-09-04T15:52:43.211Z,27.00
2022-09-04T15:55:41.566Z,27.10
2022-09-04T15:58:16.473Z,27.10
2022-09-04T16:01:09.351Z,27.10
2022-09-04T16:03:53.529Z,27.00
2022-09-04T16:06:45.519Z,27.00
2022-09-04T16:09:26.895Z,27.00
2022-09-04T16:12:18.453Z,27.00
2022-09-04T16:14:56.191Z,27.00
2022-09-04T16:17:32.360Z,27.00
2022-09-04T16:20:23.780Z,27.00
2022-09-04T16:23:02.851Z,27.00
2022-09-04T16:25:53.915Z,27.00
2022-09-04T16:31:35.851Z,26.90
2022-09-04T16:34:26.266Z,26.90
2022-09-04T16:37:10.674Z,26.80
2022-09-04T16:40:02.430Z,26.80
2022-09-04T16:42:44.802Z,26.80
2022-09-04T16:45:20.627Z,26.80
2022-09-04T16:48:43.083Z,26.80
2022-09-04T16:51:39.968Z,26.80
2022-09-04T16:54:50.230Z,26.80
2022-09-04T16:57:22.604Z,26.70
2022-09-04T17:00:11.768Z,26.70
2022-09-04T17:02:49.816Z,26.70
2022-09-04T17:05:29.448Z,26.70
2022-09-04T17:08:14.477Z,26.60
2022-09-04T17:10:59.124Z,26.60
2022-09-04T17:13:46.797Z,26.60
2022-09-04T17:16:19.220Z,26.60
2022-09-04T17:18:56.660Z,26.60
2022-09-04T17:27:03.093Z,26.60
2022-09-04T17:29:11.132Z,26.50
2022-09-04T17:29:12.478Z,26.50
2022-09-04T17:30:54.494Z,26.50
2022-09-04T17:38:44.058Z,26.50
2022-09-04T17:40:44.405Z,26.50
2022-09-04T17:40:49.125Z,26.40
2022-09-04T17:43:24.555Z,26.50
2022-09-04T17:46:14.710Z,26.50
2022-09-04T17:48:47.771Z,26.50
2022-09-04T17:51:26.899Z,26.50
2022-09-04T17:54:08.660Z,26.50
2022-09-04T17:57:05.448Z,26.50
2022-09-04T18:00:00.907Z,26.40
2022-09-04T18:02:39.210Z,26.50
2022-09-04T18:05:11.650Z,26.50
2022-09-04T18:08:08.898Z,26.50
2022-09-04T18:10:54.099Z,26.50
2022-09-04T18:13:38.018Z,26.50
2022-09-04T18:16:25.240Z,26.40
2022-09-04T18:19:11.289Z,26.40
2022-09-04T18:22:25.019Z,26.40
2022-09-04T18:24:53.238Z,26.40
2022-09-04T18:27:45.899Z,26.40
2022-09-04T18:33:32.405Z,26.40
2022-09-04T18:37:18.588Z,26.40
2022-09-04T18:37:20.591Z,26.40
2022-09-04T18:39:43.329Z,26.40
2022-09-04T18:50:22.112Z,26.40
2022-09-04T18:50:29.499Z,26.40
2022-09-04T18:50:31.400Z,26.40
2022-09-04T18:51:31.686Z,26.40
2022-09-04T18:54:33.505Z,26.40
2022-09-04T18:57:13.457Z,26.40
2022-09-04T18:59:47.139Z,26.40
2022-09-04T19:02:31.343Z,26.40
2022-09-04T19:05:09.849Z,26.40
2022-09-04T19:07:57.607Z,26.40
2022-09-04T19:10:36.818Z,26.50
2022-09-04T19:13:22.256Z,26.40
2022-09-04T19:16:29.871Z,26.50
2022-09-04T19:19:14.216Z,26.50
2022-09-04T19:21:58.626Z,26.50
2022-09-04T19:24:43.057Z,26.50
2022-09-04T19:27:26.949Z,26.50
2022-09-04T19:30:18.367Z,26.50
2022-09-04T19:33:01.022Z,26.50
2022-09-04T19:35:33.411Z,26.50
2022-09-04T19:45:56.555Z,26.50
2022-09-04T19:45:57.292Z,26.50
2022-09-04T19:46:19.488Z,26.50
2022-09-04T19:47:41.998Z,26.50
2022-09-04T19:53:19.311Z,26.50
2022-09-04T19:53:48.721Z,26.50
2022-09-04T19:56:38.109Z,26.50
2022-09-04T19:59:32.429Z,26.50
2022-09-04T20:02:03.223Z,26.50
2022-09-04T20:04:48.113Z,26.40
2022-09-04T20:07:37.207Z,26.40
2022-09-04T20:10:30.588Z,26.40
2022-09-04T20:13:17.495Z,26.40
2022-09-04T20:15:56.020Z,26.40
2022-09-04T20:18:30.785Z,26.40
2022-09-04T20:21:09.998Z,26.30
2022-09-04T20:23:45.481Z,26.40
2022-09-04T20:26:30.754Z,26.30
2022-09-04T20:29:34.428Z,26.30
2022-09-04T20:32:17.355Z,26.30
2022-09-04T20:35:13.615Z,26.30
2022-09-04T20:37:45.941Z,26.30
2022-09-04T20:40:26.978Z,26.30
2022-09-04T20:43:06.336Z,26.30
2022-09-04T20:48:20.824Z,26.30
2022-09-04T20:52:48.975Z,26.30
2022-09-04T20:52:50.485Z,26.30
2022-09-04T20:54:39.389Z,26.30
2022-09-04T21:01:02.244Z,26.30
2022-09-04T21:03:11.424Z,26.30
2022-09-04T21:03:36.788Z,26.30
2022-09-04T21:06:27.486Z,26.30
2022-09-04T21:09:15.226Z,26.30
2022-09-04T21:11:51.928Z,26.30
2022-09-04T21:14:35.152Z,26.30
2022-09-04T21:17:36.044Z,26.30
2022-09-04T21:20:33.204Z,26.30
2022-09-04T21:23:20.626Z,26.30
2022-09-04T21:26:19.319Z,26.30
2022-09-04T21:29:10.677Z,26.30
2022-09-04T21:32:10.887Z,26.30
2022-09-04T21:35:04.198Z,26.30
2022-09-04T21:38:03.518Z,26.30
2022-09-04T21:40:51.236Z,26.30
2022-09-04T21:43:35.819Z,26.30
2022-09-04T21:46:13.104Z,26.30
2022-09-04T21:49:24.363Z,26.30
2022-09-04T21:51:55.515Z,26.30
2022-09-04T21:59:28.202Z,26.30
2022-09-04T22:02:35.218Z,26.30
2022-09-04T22:02:42.822Z,26.30
2022-09-04T22:04:14.473Z,26.30
2022-09-04T22:10:21.718Z,26.30
2022-09-04T22:13:31.404Z,26.30
2022-09-04T22:13:43.610Z,26.20
2022-09-04T22:16:00.719Z,26.30
2022-09-04T22:19:05.672Z,26.30
2022-09-04T22:22:03.429Z,26.30
2022-09-04T22:24:33.210Z,26.20
2022-09-04T22:27:37.640Z,26.20
2022-09-04T22:30:24.417Z,26.20
2022-09-04T22:33:21.242Z,26.20
2022-09-04T22:36:23.965Z,26.20
2022-09-04T22:39:04.901Z,26.20
2022-09-04T22:41:58.652Z,26.20
2022-09-04T22:44:40.016Z,26.20
2022-09-04T22:47:49.471Z,26.20
2022-09-04T22:50:49.333Z,26.30
2022-09-04T22:53:29.071Z,26.30
2022-09-04T22:56:11.167Z,26.20
2022-09-04T22:58:55.807Z,26.20
2022-09-04T23:02:14.389Z,26.20
2022-09-04T23:05:08.099Z,26.20
2022-09-04T23:11:46.679Z,26.20
2022-09-04T23:14:01.714Z,26.20
2022-09-04T23:14:14.648Z,26.20
2022-09-04T23:17:20.373Z,26.20
2022-09-04T23:24:47.881Z,26.20
2022-09-04T23:26:46.613Z,26.20
2022-09-04T23:27:00.460Z,26.20
2022-09-04T23:30:06.885Z,26.20
2022-09-04T23:32:56.992Z,26.30
2022-09-04T23:35:57.577Z,26.20
2022-09-04T23:38:45.243Z,26.30
2022-09-04T23:41:35.608Z,26.30
2022-09-04T23:44:47.136Z,26.30
2022-09-04T23:47:48.521Z,26.30
2022-09-04T23:50:39.160Z,26.30
2022-09-04T23:53:23.558Z,26.30
2022-09-04T23:56:20.278Z,26.40
2022-09-04T23:59:22.778Z,26.40
